sensor_id;sensor_type;location;lat;lon;timestamp;P1;durP1;ratioP1;P2;durP2;ratioP2
26040;SDS011;13816;53.628;9.950;2022-12-01T00:00:56;86.77;;;48.97;;
26040;SDS011;13816;53.628;9.950;2022-12-01T00:03:23;95.20;;;51.03;;
26040;SDS011;13816;53.628;9.950;2022-12-01T00:08:32;91.70;;;48.90;;
26040;SDS011;13816;53.628;9.950;2022-12-01T00:11:08;95.87;;;49.73;;
26040;SDS011;13816;53.628;9.950;2022-12-01T00:13:36;94.00;;;51.83;;
26040;SDS011;13816;53.628;9.950;2022-12-01T00:16:12;91.63;;;52.20;;
26040;SDS011;13816;53.628;9.950;2022-12-01T00:18:39;84.97;;;48.93;;
26040;SDS011;13816;53.628;9.950;2022-12-01T00:21:07;89.83;;;50.43;;
26040;SDS011;13816;53.628;9.950;2022-12-01T00:23:38;97.87;;;51.90;;
26040;SDS011;13816;53.628;9.950;2022-12-01T00:26:07;89.67;;;49.43;;
26040;SDS011;13816;53.628;9.950;2022-12-01T00:28:33;100.77;;;51.70;;
26040;SDS011;13816;53.628;9.950;2022-12-01T00:30:58;95.27;;;52.20;;
26040;SDS011;13816;53.628;9.950;2022-12-01T00:33:24;95.93;;;52.40;;
26040;SDS011;13816;53.628;9.950;2022-12-01T00:35:56;96.30;;;51.27;;
26040;SDS011;13816;53.628;9.950;2022-12-01T00:38:23;91.87;;;52.50;;
26040;SDS011;13816;53.628;9.950;2022-12-01T00:40:49;92.30;;;52.17;;
26040;SDS011;13816;53.628;9.950;2022-12-01T00:43:14;85.40;;;50.80;;
26040;SDS011;13816;53.628;9.950;2022-12-01T00:45:41;91.30;;;50.23;;
26040;SDS011;13816;53.628;9.950;2022-12-01T00:48:07;81.50;;;49.30;;
26040;SDS011;13816;53.628;9.950;2022-12-01T00:50:33;87.53;;;51.20;;
26040;SDS011;13816;53.628;9.950;2022-12-01T00:52:59;93.67;;;52.33;;
26040;SDS011;13816;53.628;9.950;2022-12-01T00:55:25;87.43;;;49.40;;
26040;SDS011;13816;53.628;9.950;2022-12-01T00:57:50;102.03;;;49.80;;
26040;SDS011;13816;53.628;9.950;2022-12-01T01:00:16;81.77;;;49.50;;
26040;SDS011;13816;53.628;9.950;2022-12-01T01:02:42;88.97;;;49.23;;
26040;SDS011;13816;53.628;9.950;2022-12-01T01:05:08;95.60;;;50.80;;
26040;SDS011;13816;53.628;9.950;2022-12-01T01:07:34;92.53;;;49.83;;
26040;SDS011;13816;53.628;9.950;2022-12-01T01:10:00;84.43;;;48.03;;
26040;SDS011;13816;53.628;9.950;2022-12-01T01:12:26;94.80;;;52.37;;
26040;SDS011;13816;53.628;9.950;2022-12-01T01:14:52;97.67;;;53.00;;
26040;SDS011;13816;53.628;9.950;2022-12-01T01:17:18;99.67;;;53.60;;
26040;SDS011;13816;53.628;9.950;2022-12-01T01:19:44;96.03;;;50.30;;
26040;SDS011;13816;53.628;9.950;2022-12-01T01:22:10;93.63;;;51.40;;
26040;SDS011;13816;53.628;9.950;2022-12-01T01:24:36;97.47;;;52.50;;
26040;SDS011;13816;53.628;9.950;2022-12-01T01:27:02;95.90;;;49.90;;
26040;SDS011;13816;53.628;9.950;2022-12-01T01:29:30;92.60;;;49.90;;
26040;SDS011;13816;53.628;9.950;2022-12-01T01:31:56;93.60;;;50.23;;
26040;SDS011;13816;53.628;9.950;2022-12-01T01:34:22;93.17;;;51.27;;
26040;SDS011;13816;53.628;9.950;2022-12-01T01:36:48;97.87;;;51.70;;
26040;SDS011;13816;53.628;9.950;2022-12-01T01:39:14;92.77;;;52.60;;
26040;SDS011;13816;53.628;9.950;2022-12-01T01:41:40;88.13;;;48.43;;
26040;SDS011;13816;53.628;9.950;2022-12-01T01:47:09;91.73;;;49.93;;
26040;SDS011;13816;53.628;9.950;2022-12-01T01:49:36;101.60;;;50.77;;
26040;SDS011;13816;53.628;9.950;2022-12-01T01:52:02;89.20;;;49.70;;
26040;SDS011;13816;53.628;9.950;2022-12-01T01:54:33;100.57;;;52.10;;
26040;SDS011;13816;53.628;9.950;2022-12-01T01:57:02;95.00;;;47.80;;
26040;SDS011;13816;53.628;9.950;2022-12-01T01:59:32;82.63;;;49.50;;
26040;SDS011;13816;53.628;9.950;2022-12-01T02:02:05;94.00;;;50.93;;
26040;SDS011;13816;53.628;9.950;2022-12-01T02:04:33;91.10;;;50.27;;
26040;SDS011;13816;53.628;9.950;2022-12-01T02:07:02;88.57;;;50.87;;
26040;SDS011;13816;53.628;9.950;2022-12-01T02:09:29;98.10;;;49.73;;
26040;SDS011;13816;53.628;9.950;2022-12-01T02:14:48;93.83;;;51.33;;
26040;SDS011;13816;53.628;9.950;2022-12-01T02:34:43;93.10;;;51.30;;
26040;SDS011;13816;53.628;9.950;2022-12-01T02:37:29;91.37;;;50.27;;
26040;SDS011;13816;53.628;9.950;2022-12-01T02:39:47;92.10;;;50.40;;
26040;SDS011;13816;53.628;9.950;2022-12-01T02:47:55;98.90;;;49.37;;
26040;SDS011;13816;53.628;9.950;2022-12-01T02:50:24;90.80;;;49.90;;
26040;SDS011;13816;53.628;9.950;2022-12-01T02:52:53;91.80;;;50.77;;
26040;SDS011;13816;53.628;9.950;2022-12-01T02:55:20;93.20;;;49.13;;
26040;SDS011;13816;53.628;9.950;2022-12-01T02:57:45;100.03;;;51.60;;
26040;SDS011;13816;53.628;9.950;2022-12-01T03:00:11;95.77;;;49.70;;
26040;SDS011;13816;53.628;9.950;2022-12-01T03:02:44;100.07;;;54.50;;
26040;SDS011;13816;53.628;9.950;2022-12-01T03:05:32;100.53;;;51.30;;
26040;SDS011;13816;53.628;9.950;2022-12-01T03:10:53;98.43;;;50.47;;
26040;SDS011;13816;53.628;9.950;2022-12-01T03:21:37;89.90;;;49.20;;
26040;SDS011;13816;53.628;9.950;2022-12-01T03:24:10;97.07;;;52.07;;
26040;SDS011;13816;53.628;9.950;2022-12-01T03:26:40;93.00;;;50.37;;
26040;SDS011;13816;53.628;9.950;2022-12-01T03:29:17;104.17;;;53.40;;
26040;SDS011;13816;53.628;9.950;2022-12-01T03:31:47;107.37;;;53.03;;
26040;SDS011;13816;53.628;9.950;2022-12-01T03:34:38;105.97;;;51.37;;
26040;SDS011;13816;53.628;9.950;2022-12-01T03:37:16;96.50;;;50.93;;
26040;SDS011;13816;53.628;9.950;2022-12-01T03:39:49;98.67;;;54.93;;
26040;SDS011;13816;53.628;9.950;2022-12-01T03:42:25;109.93;;;55.70;;
26040;SDS011;13816;53.628;9.950;2022-12-01T03:45:02;101.87;;;53.13;;
26040;SDS011;13816;53.628;9.950;2022-12-01T03:47:32;103.83;;;51.27;;
26040;SDS011;13816;53.628;9.950;2022-12-01T03:50:01;104.83;;;51.67;;
26040;SDS011;13816;53.628;9.950;2022-12-01T03:55:16;127.03;;;55.20;;
26040;SDS011;13816;53.628;9.950;2022-12-01T04:00:33;107.93;;;55.50;;
26040;SDS011;13816;53.628;9.950;2022-12-01T04:03:00;114.93;;;56.43;;
26040;SDS011;13816;53.628;9.950;2022-12-01T04:05:28;107.57;;;53.57;;
26040;SDS011;13816;53.628;9.950;2022-12-01T04:07:55;115.27;;;55.30;;
26040;SDS011;13816;53.628;9.950;2022-12-01T04:10:21;119.40;;;54.87;;
26040;SDS011;13816;53.628;9.950;2022-12-01T04:12:47;111.53;;;55.17;;
26040;SDS011;13816;53.628;9.950;2022-12-01T04:15:13;111.53;;;55.37;;
26040;SDS011;13816;53.628;9.950;2022-12-01T04:17:40;116.60;;;54.80;;
26040;SDS011;13816;53.628;9.950;2022-12-01T04:20:10;107.87;;;55.20;;
26040;SDS011;13816;53.628;9.950;2022-12-01T04:22:37;116.60;;;53.80;;
26040;SDS011;13816;53.628;9.950;2022-12-01T04:25:04;101.83;;;51.70;;
26040;SDS011;13816;53.628;9.950;2022-12-01T04:27:31;107.73;;;54.63;;
26040;SDS011;13816;53.628;9.950;2022-12-01T04:29:57;108.83;;;54.20;;
26040;SDS011;13816;53.628;9.950;2022-12-01T04:32:23;105.87;;;51.90;;
26040;SDS011;13816;53.628;9.950;2022-12-01T04:34:49;110.00;;;53.67;;
26040;SDS011;13816;53.628;9.950;2022-12-01T04:37:15;117.10;;;53.70;;
26040;SDS011;13816;53.628;9.950;2022-12-01T04:39:41;116.47;;;56.10;;
26040;SDS011;13816;53.628;9.950;2022-12-01T04:42:07;113.43;;;55.23;;
26040;SDS011;13816;53.628;9.950;2022-12-01T04:44:33;103.50;;;50.73;;
26040;SDS011;13816;53.628;9.950;2022-12-01T04:46:59;120.27;;;55.07;;
26040;SDS011;13816;53.628;9.950;2022-12-01T04:49:25;107.90;;;50.40;;
26040;SDS011;13816;53.628;9.950;2022-12-01T04:51:51;115.13;;;56.60;;
26040;SDS011;13816;53.628;9.950;2022-12-01T04:54:17;106.63;;;52.87;;
26040;SDS011;13816;53.628;9.950;2022-12-01T04:56:42;111.23;;;55.47;;
26040;SDS011;13816;53.628;9.950;2022-12-01T04:59:08;107.77;;;54.00;;
26040;SDS011;13816;53.628;9.950;2022-12-01T05:01:34;106.73;;;54.43;;
26040;SDS011;13816;53.628;9.950;2022-12-01T05:04:00;110.17;;;52.03;;
26040;SDS011;13816;53.628;9.950;2022-12-01T05:06:27;104.83;;;54.63;;
26040;SDS011;13816;53.628;9.950;2022-12-01T05:08:54;110.37;;;53.27;;
26040;SDS011;13816;53.628;9.950;2022-12-01T05:11:22;103.83;;;51.70;;
26040;SDS011;13816;53.628;9.950;2022-12-01T05:13:48;113.50;;;53.00;;
26040;SDS011;13816;53.628;9.950;2022-12-01T05:16:22;105.30;;;50.73;;
26040;SDS011;13816;53.628;9.950;2022-12-01T05:18:51;119.87;;;53.10;;
26040;SDS011;13816;53.628;9.950;2022-12-01T05:21:38;108.10;;;55.73;;
26040;SDS011;13816;53.628;9.950;2022-12-01T05:24:05;100.53;;;51.10;;
26040;SDS011;13816;53.628;9.950;2022-12-01T05:26:31;99.13;;;51.90;;
26040;SDS011;13816;53.628;9.950;2022-12-01T05:28:57;106.30;;;53.30;;
26040;SDS011;13816;53.628;9.950;2022-12-01T05:31:23;108.53;;;52.00;;
26040;SDS011;13816;53.628;9.950;2022-12-01T05:33:49;107.93;;;51.37;;
26040;SDS011;13816;53.628;9.950;2022-12-01T05:36:14;102.60;;;52.20;;
26040;SDS011;13816;53.628;9.950;2022-12-01T05:38:40;100.83;;;51.40;;
26040;SDS011;13816;53.628;9.950;2022-12-01T05:41:06;122.73;;;56.67;;
26040;SDS011;13816;53.628;9.950;2022-12-01T05:43:31;104.30;;;50.70;;
26040;SDS011;13816;53.628;9.950;2022-12-01T05:45:57;115.67;;;56.53;;
26040;SDS011;13816;53.628;9.950;2022-12-01T05:48:23;117.87;;;54.70;;
26040;SDS011;13816;53.628;9.950;2022-12-01T05:50:49;114.57;;;58.05;;
26040;SDS011;13816;53.628;9.950;2022-12-01T05:53:15;110.27;;;56.00;;
26040;SDS011;13816;53.628;9.950;2022-12-01T05:55:41;104.63;;;53.13;;
26040;SDS011;13816;53.628;9.950;2022-12-01T05:58:07;107.93;;;54.63;;
26040;SDS011;13816;53.628;9.950;2022-12-01T06:00:33;115.10;;;55.23;;
26040;SDS011;13816;53.628;9.950;2022-12-01T06:03:00;112.70;;;53.00;;
26040;SDS011;13816;53.628;9.950;2022-12-01T06:05:26;107.83;;;53.90;;
26040;SDS011;13816;53.628;9.950;2022-12-01T06:07:52;111.13;;;52.63;;
26040;SDS011;13816;53.628;9.950;2022-12-01T06:10:18;116.67;;;53.47;;
26040;SDS011;13816;53.628;9.950;2022-12-01T06:12:44;104.87;;;52.43;;
26040;SDS011;13816;53.628;9.950;2022-12-01T06:15:10;112.07;;;53.10;;
26040;SDS011;13816;53.628;9.950;2022-12-01T06:17:36;121.77;;;52.73;;
26040;SDS011;13816;53.628;9.950;2022-12-01T06:20:04;109.10;;;55.13;;
26040;SDS011;13816;53.628;9.950;2022-12-01T06:22:30;111.23;;;52.77;;
26040;SDS011;13816;53.628;9.950;2022-12-01T06:24:56;110.03;;;53.47;;
26040;SDS011;13816;53.628;9.950;2022-12-01T06:27:22;103.90;;;51.87;;
26040;SDS011;13816;53.628;9.950;2022-12-01T06:29:49;102.10;;;50.37;;
26040;SDS011;13816;53.628;9.950;2022-12-01T06:32:15;107.57;;;53.20;;
26040;SDS011;13816;53.628;9.950;2022-12-01T06:34:41;117.27;;;57.00;;
26040;SDS011;13816;53.628;9.950;2022-12-01T06:37:08;114.80;;;55.27;;
26040;SDS011;13816;53.628;9.950;2022-12-01T06:39:35;112.50;;;56.60;;
26040;SDS011;13816;53.628;9.950;2022-12-01T06:42:02;117.17;;;53.60;;
26040;SDS011;13816;53.628;9.950;2022-12-01T06:44:27;118.43;;;56.43;;
26040;SDS011;13816;53.628;9.950;2022-12-01T06:46:55;118.17;;;54.17;;
26040;SDS011;13816;53.628;9.950;2022-12-01T06:49:21;114.77;;;53.60;;
26040;SDS011;13816;53.628;9.950;2022-12-01T06:51:48;115.80;;;55.93;;
26040;SDS011;13816;53.628;9.950;2022-12-01T06:54:14;113.60;;;52.20;;
26040;SDS011;13816;53.628;9.950;2022-12-01T06:56:42;110.00;;;52.80;;
26040;SDS011;13816;53.628;9.950;2022-12-01T06:59:08;113.87;;;53.07;;
26040;SDS011;13816;53.628;9.950;2022-12-01T07:01:37;112.77;;;53.27;;
26040;SDS011;13816;53.628;9.950;2022-12-01T07:04:03;121.73;;;56.27;;
26040;SDS011;13816;53.628;9.950;2022-12-01T07:06:29;125.13;;;55.77;;
26040;SDS011;13816;53.628;9.950;2022-12-01T07:08:55;117.93;;;53.50;;
26040;SDS011;13816;53.628;9.950;2022-12-01T07:11:21;115.60;;;51.77;;
26040;SDS011;13816;53.628;9.950;2022-12-01T07:13:47;121.97;;;54.87;;
26040;SDS011;13816;53.628;9.950;2022-12-01T07:16:15;111.20;;;53.90;;
26040;SDS011;13816;53.628;9.950;2022-12-01T07:18:40;113.83;;;51.27;;
26040;SDS011;13816;53.628;9.950;2022-12-01T07:21:10;107.33;;;51.90;;
26040;SDS011;13816;53.628;9.950;2022-12-01T07:23:37;113.10;;;52.83;;
26040;SDS011;13816;53.628;9.950;2022-12-01T07:26:09;113.40;;;53.70;;
26040;SDS011;13816;53.628;9.950;2022-12-01T07:28:39;113.93;;;54.40;;
26040;SDS011;13816;53.628;9.950;2022-12-01T07:31:13;109.17;;;51.07;;
26040;SDS011;13816;53.628;9.950;2022-12-01T07:33:41;108.27;;;53.17;;
26040;SDS011;13816;53.628;9.950;2022-12-01T07:36:07;124.40;;;55.27;;
26040;SDS011;13816;53.628;9.950;2022-12-01T07:38:39;108.30;;;51.70;;
26040;SDS011;13816;53.628;9.950;2022-12-01T07:41:12;114.10;;;52.63;;
26040;SDS011;13816;53.628;9.950;2022-12-01T07:43:42;112.83;;;56.00;;
26040;SDS011;13816;53.628;9.950;2022-12-01T07:46:09;102.53;;;51.93;;
26040;SDS011;13816;53.628;9.950;2022-12-01T07:48:38;113.27;;;52.43;;
26040;SDS011;13816;53.628;9.950;2022-12-01T07:51:12;113.67;;;52.90;;
26040;SDS011;13816;53.628;9.950;2022-12-01T07:53:41;114.43;;;53.43;;
26040;SDS011;13816;53.628;9.950;2022-12-01T07:56:08;120.30;;;55.60;;
26040;SDS011;13816;53.628;9.950;2022-12-01T07:58:38;110.70;;;52.20;;
26040;SDS011;13816;53.628;9.950;2022-12-01T08:01:10;106.90;;;54.97;;
26040;SDS011;13816;53.628;9.950;2022-12-01T08:03:37;110.33;;;52.40;;
26040;SDS011;13816;53.628;9.950;2022-12-01T08:06:03;112.10;;;50.33;;
26040;SDS011;13816;53.628;9.950;2022-12-01T08:08:31;112.40;;;52.73;;
26040;SDS011;13816;53.628;9.950;2022-12-01T08:10:59;109.80;;;51.63;;
26040;SDS011;13816;53.628;9.950;2022-12-01T08:13:26;112.93;;;50.97;;
26040;SDS011;13816;53.628;9.950;2022-12-01T08:15:55;101.83;;;51.37;;
26040;SDS011;13816;53.628;9.950;2022-12-01T08:18:21;112.00;;;49.93;;
26040;SDS011;13816;53.628;9.950;2022-12-01T08:20:48;108.10;;;49.57;;
26040;SDS011;13816;53.628;9.950;2022-12-01T08:23:20;98.30;;;49.80;;
26040;SDS011;13816;53.628;9.950;2022-12-01T08:25:45;101.23;;;49.40;;
26040;SDS011;13816;53.628;9.950;2022-12-01T08:28:11;106.50;;;50.40;;
26040;SDS011;13816;53.628;9.950;2022-12-01T08:30:42;101.30;;;48.67;;
26040;SDS011;13816;53.628;9.950;2022-12-01T08:33:09;96.80;;;48.73;;
26040;SDS011;13816;53.628;9.950;2022-12-01T08:35:35;105.70;;;48.90;;
26040;SDS011;13816;53.628;9.950;2022-12-01T08:38:01;103.97;;;49.60;;
26040;SDS011;13816;53.628;9.950;2022-12-01T08:40:30;108.97;;;50.43;;
26040;SDS011;13816;53.628;9.950;2022-12-01T08:42:56;95.23;;;47.13;;
26040;SDS011;13816;53.628;9.950;2022-12-01T08:45:25;92.43;;;45.23;;
26040;SDS011;13816;53.628;9.950;2022-12-01T08:47:54;100.07;;;47.37;;
26040;SDS011;13816;53.628;9.950;2022-12-01T08:50:26;92.13;;;44.90;;
26040;SDS011;13816;53.628;9.950;2022-12-01T08:52:53;88.27;;;45.00;;
26040;SDS011;13816;53.628;9.950;2022-12-01T08:55:20;94.10;;;46.10;;
26040;SDS011;13816;53.628;9.950;2022-12-01T08:57:51;86.80;;;48.03;;
26040;SDS011;13816;53.628;9.950;2022-12-01T09:00:17;104.60;;;51.53;;
26040;SDS011;13816;53.628;9.950;2022-12-01T09:02:43;94.27;;;47.27;;
26040;SDS011;13816;53.628;9.950;2022-12-01T09:05:11;101.73;;;48.20;;
26040;SDS011;13816;53.628;9.950;2022-12-01T09:07:37;103.97;;;47.20;;
26040;SDS011;13816;53.628;9.950;2022-12-01T09:10:05;92.30;;;47.60;;
26040;SDS011;13816;53.628;9.950;2022-12-01T09:12:31;93.07;;;48.93;;
26040;SDS011;13816;53.628;9.950;2022-12-01T09:15:00;97.53;;;46.97;;
26040;SDS011;13816;53.628;9.950;2022-12-01T09:17:27;91.77;;;45.97;;
26040;SDS011;13816;53.628;9.950;2022-12-01T09:19:52;88.17;;;44.67;;
26040;SDS011;13816;53.628;9.950;2022-12-01T09:22:19;98.83;;;49.57;;
26040;SDS011;13816;53.628;9.950;2022-12-01T09:24:48;92.30;;;46.60;;
26040;SDS011;13816;53.628;9.950;2022-12-01T09:27:14;96.00;;;46.43;;
26040;SDS011;13816;53.628;9.950;2022-12-01T09:29:43;94.00;;;47.03;;
26040;SDS011;13816;53.628;9.950;2022-12-01T09:32:09;92.50;;;45.33;;
26040;SDS011;13816;53.628;9.950;2022-12-01T09:34:35;94.77;;;46.83;;
26040;SDS011;13816;53.628;9.950;2022-12-01T09:37:01;91.40;;;46.50;;
26040;SDS011;13816;53.628;9.950;2022-12-01T09:39:30;94.90;;;47.17;;
26040;SDS011;13816;53.628;9.950;2022-12-01T09:41:58;84.80;;;44.03;;
26040;SDS011;13816;53.628;9.950;2022-12-01T09:44:42;86.33;;;45.30;;
26040;SDS011;13816;53.628;9.950;2022-12-01T09:49:58;83.53;;;41.03;;
26040;SDS011;13816;53.628;9.950;2022-12-01T09:52:28;87.03;;;42.27;;
26040;SDS011;13816;53.628;9.950;2022-12-01T09:55:18;82.50;;;39.67;;
26040;SDS011;13816;53.628;9.950;2022-12-01T09:57:54;83.23;;;39.80;;
26040;SDS011;13816;53.628;9.950;2022-12-01T10:00:22;81.93;;;39.10;;
26040;SDS011;13816;53.628;9.950;2022-12-01T10:03:13;73.40;;;37.90;;
26040;SDS011;13816;53.628;9.950;2022-12-01T10:05:54;64.80;;;34.60;;
26040;SDS011;13816;53.628;9.950;2022-12-01T10:08:26;64.80;;;30.73;;
26040;SDS011;13816;53.628;9.950;2022-12-01T10:10:57;54.37;;;29.60;;
26040;SDS011;13816;53.628;9.950;2022-12-01T10:13:53;57.20;;;30.33;;
26040;SDS011;13816;53.628;9.950;2022-12-01T10:16:23;72.73;;;31.00;;
26040;SDS011;13816;53.628;9.950;2022-12-01T10:19:18;58.90;;;29.60;;
26040;SDS011;13816;53.628;9.950;2022-12-01T10:24:53;62.97;;;31.60;;
26040;SDS011;13816;53.628;9.950;2022-12-01T10:30:27;63.80;;;30.47;;
26040;SDS011;13816;53.628;9.950;2022-12-01T10:32:54;60.37;;;31.80;;
26040;SDS011;13816;53.628;9.950;2022-12-01T10:35:25;62.37;;;31.20;;
26040;SDS011;13816;53.628;9.950;2022-12-01T10:37:58;62.03;;;31.33;;
26040;SDS011;13816;53.628;9.950;2022-12-01T10:40:31;60.93;;;31.50;;
26040;SDS011;13816;53.628;9.950;2022-12-01T10:43:00;56.07;;;28.63;;
26040;SDS011;13816;53.628;9.950;2022-12-01T10:45:33;64.30;;;32.80;;
26040;SDS011;13816;53.628;9.950;2022-12-01T10:48:11;61.27;;;28.97;;
26040;SDS011;13816;53.628;9.950;2022-12-01T10:50:40;64.50;;;29.70;;
26040;SDS011;13816;53.628;9.950;2022-12-01T10:53:25;66.03;;;31.57;;
26040;SDS011;13816;53.628;9.950;2022-12-01T10:55:58;57.30;;;29.60;;
26040;SDS011;13816;53.628;9.950;2022-12-01T10:58:53;62.90;;;29.83;;
26040;SDS011;13816;53.628;9.950;2022-12-01T11:01:24;78.63;;;29.40;;
26040;SDS011;13816;53.628;9.950;2022-12-01T11:03:53;64.10;;;29.27;;
26040;SDS011;13816;53.628;9.950;2022-12-01T11:06:23;68.80;;;30.37;;
26040;SDS011;13816;53.628;9.950;2022-12-01T11:08:55;60.10;;;29.47;;
26040;SDS011;13816;53.628;9.950;2022-12-01T11:11:29;62.07;;;28.40;;
26040;SDS011;13816;53.628;9.950;2022-12-01T11:13:58;70.60;;;31.33;;
26040;SDS011;13816;53.628;9.950;2022-12-01T11:16:46;69.07;;;30.40;;
26040;SDS011;13816;53.628;9.950;2022-12-01T11:21:52;64.83;;;26.90;;
26040;SDS011;13816;53.628;9.950;2022-12-01T11:27:16;60.97;;;27.73;;
26040;SDS011;13816;53.628;9.950;2022-12-01T11:29:47;57.50;;;26.23;;
26040;SDS011;13816;53.628;9.950;2022-12-01T11:32:17;65.60;;;29.60;;
26040;SDS011;13816;53.628;9.950;2022-12-01T11:34:56;54.93;;;27.27;;
26040;SDS011;13816;53.628;9.950;2022-12-01T11:37:29;63.60;;;29.03;;
26040;SDS011;13816;53.628;9.950;2022-12-01T11:40:06;63.03;;;28.40;;
26040;SDS011;13816;53.628;9.950;2022-12-01T11:42:40;58.63;;;27.97;;
26040;SDS011;13816;53.628;9.950;2022-12-01T11:45:22;61.10;;;28.80;;
26040;SDS011;13816;53.628;9.950;2022-12-01T11:50:40;69.03;;;27.87;;
26040;SDS011;13816;53.628;9.950;2022-12-01T11:58:56;60.77;;;27.77;;
26040;SDS011;13816;53.628;9.950;2022-12-01T12:11:01;59.53;;;27.13;;
26040;SDS011;13816;53.628;9.950;2022-12-01T12:26:22;54.63;;;25.90;;
26040;SDS011;13816;53.628;9.950;2022-12-01T12:57:05;51.00;;;22.30;;
26040;SDS011;13816;53.628;9.950;2022-12-01T13:06:59;34.57;;;18.07;;
26040;SDS011;13816;53.628;9.950;2022-12-01T13:10:04;40.53;;;20.60;;
26040;SDS011;13816;53.628;9.950;2022-12-01T13:12:26;50.33;;;21.97;;
26040;SDS011;13816;53.628;9.950;2022-12-01T13:15:13;50.77;;;21.97;;
26040;SDS011;13816;53.628;9.950;2022-12-01T13:26:31;47.10;;;20.30;;
26040;SDS011;13816;53.628;9.950;2022-12-01T13:32:56;47.10;;;21.50;;
26040;SDS011;13816;53.628;9.950;2022-12-01T13:35:44;53.37;;;20.97;;
26040;SDS011;13816;53.628;9.950;2022-12-01T13:38:21;45.10;;;20.23;;
26040;SDS011;13816;53.628;9.950;2022-12-01T14:26:47;46.00;;;19.67;;
26040;SDS011;13816;53.628;9.950;2022-12-01T14:58:07;39.13;;;17.60;;
26040;SDS011;13816;53.628;9.950;2022-12-01T15:01:22;40.00;;;18.63;;
26040;SDS011;13816;53.628;9.950;2022-12-01T15:07:12;33.67;;;17.30;;
26040;SDS011;13816;53.628;9.950;2022-12-01T15:12:42;36.30;;;16.77;;
26040;SDS011;13816;53.628;9.950;2022-12-01T15:18:42;36.33;;;18.20;;
26040;SDS011;13816;53.628;9.950;2022-12-01T15:24:18;35.80;;;16.40;;
26040;SDS011;13816;53.628;9.950;2022-12-01T15:31:20;34.80;;;16.33;;
26040;SDS011;13816;53.628;9.950;2022-12-01T15:34:32;26.97;;;15.70;;
26040;SDS011;13816;53.628;9.950;2022-12-01T15:38:03;28.40;;;15.70;;
26040;SDS011;13816;53.628;9.950;2022-12-01T15:45:17;34.33;;;16.83;;
26040;SDS011;13816;53.628;9.950;2022-12-01T15:48:40;31.10;;;15.80;;
26040;SDS011;13816;53.628;9.950;2022-12-01T15:51:29;29.10;;;15.73;;
26040;SDS011;13816;53.628;9.950;2022-12-01T15:54:48;37.43;;;16.90;;
26040;SDS011;13816;53.628;9.950;2022-12-01T15:57:37;30.47;;;16.13;;
26040;SDS011;13816;53.628;9.950;2022-12-01T16:08:17;29.53;;;16.03;;
26040;SDS011;13816;53.628;9.950;2022-12-01T16:17:22;29.33;;;15.20;;
26040;SDS011;13816;53.628;9.950;2022-12-01T16:23:35;27.77;;;16.30;;
26040;SDS011;13816;53.628;9.950;2022-12-01T16:26:07;31.17;;;17.13;;
26040;SDS011;13816;53.628;9.950;2022-12-01T16:38:56;33.37;;;17.43;;
26040;SDS011;13816;53.628;9.950;2022-12-01T16:57:01;48.17;;;18.87;;
26040;SDS011;13816;53.628;9.950;2022-12-01T17:02:55;37.77;;;19.80;;
26040;SDS011;13816;53.628;9.950;2022-12-01T17:06:25;38.33;;;17.67;;
26040;SDS011;13816;53.628;9.950;2022-12-01T17:09:04;50.90;;;22.90;;
26040;SDS011;13816;53.628;9.950;2022-12-01T17:24:35;55.30;;;22.60;;
26040;SDS011;13816;53.628;9.950;2022-12-01T17:31:06;57.73;;;23.40;;
26040;SDS011;13816;53.628;9.950;2022-12-01T18:16:22;50.83;;;23.60;;
26040;SDS011;13816;53.628;9.950;2022-12-01T18:38:05;43.63;;;20.00;;
26040;SDS011;13816;53.628;9.950;2022-12-01T18:55:49;52.27;;;25.20;;
26040;SDS011;13816;53.628;9.950;2022-12-01T18:58:41;51.30;;;25.63;;
26040;SDS011;13816;53.628;9.950;2022-12-01T19:01:22;49.77;;;24.80;;
26040;SDS011;13816;53.628;9.950;2022-12-01T19:17:51;52.53;;;23.27;;
26040;SDS011;13816;53.628;9.950;2022-12-01T19:35:10;57.83;;;25.10;;
26040;SDS011;13816;53.628;9.950;2022-12-01T19:38:45;53.27;;;25.40;;
26040;SDS011;13816;53.628;9.950;2022-12-01T19:41:35;64.97;;;26.17;;
26040;SDS011;13816;53.628;9.950;2022-12-01T19:44:28;62.20;;;26.30;;
26040;SDS011;13816;53.628;9.950;2022-12-01T19:50:52;62.80;;;26.43;;
26040;SDS011;13816;53.628;9.950;2022-12-01T19:54:37;58.27;;;25.50;;
26040;SDS011;13816;53.628;9.950;2022-12-01T19:57:28;53.13;;;24.73;;
26040;SDS011;13816;53.628;9.950;2022-12-01T20:01:00;53.07;;;26.97;;
26040;SDS011;13816;53.628;9.950;2022-12-01T20:03:53;56.27;;;26.90;;
26040;SDS011;13816;53.628;9.950;2022-12-01T20:07:16;58.90;;;27.50;;
26040;SDS011;13816;53.628;9.950;2022-12-01T20:19:40;65.13;;;29.63;;
26040;SDS011;13816;53.628;9.950;2022-12-01T20:26:26;68.13;;;26.00;;
26040;SDS011;13816;53.628;9.950;2022-12-01T20:30:06;64.47;;;25.80;;
26040;SDS011;13816;53.628;9.950;2022-12-01T20:37:57;55.70;;;27.80;;
26040;SDS011;13816;53.628;9.950;2022-12-01T20:47:10;53.93;;;27.37;;
26040;SDS011;13816;53.628;9.950;2022-12-01T20:49:35;60.10;;;25.80;;
26040;SDS011;13816;53.628;9.950;2022-12-01T20:53:12;62.23;;;25.60;;
26040;SDS011;13816;53.628;9.950;2022-12-01T20:55:53;59.67;;;27.93;;
26040;SDS011;13816;53.628;9.950;2022-12-01T20:59:06;57.60;;;27.10;;
26040;SDS011;13816;53.628;9.950;2022-12-01T21:02:19;57.67;;;26.93;;
26040;SDS011;13816;53.628;9.950;2022-12-01T21:34:54;66.10;;;27.60;;
26040;SDS011;13816;53.628;9.950;2022-12-01T21:37:47;59.97;;;27.93;;
26040;SDS011;13816;53.628;9.950;2022-12-01T21:40:41;57.43;;;27.60;;
26040;SDS011;13816;53.628;9.950;2022-12-01T21:43:39;60.63;;;27.00;;
26040;SDS011;13816;53.628;9.950;2022-12-01T21:46:17;62.77;;;27.10;;
26040;SDS011;13816;53.628;9.950;2022-12-01T21:49:30;58.73;;;26.10;;
26040;SDS011;13816;53.628;9.950;2022-12-01T21:52:15;65.43;;;28.90;;
26040;SDS011;13816;53.628;9.950;2022-12-01T22:16:39;51.30;;;23.97;;
26040;SDS011;13816;53.628;9.950;2022-12-01T22:22:40;57.90;;;26.03;;
26040;SDS011;13816;53.628;9.950;2022-12-01T22:24:53;45.93;;;21.10;;
26040;SDS011;13816;53.628;9.950;2022-12-01T22:32:32;54.60;;;24.50;;
26040;SDS011;13816;53.628;9.950;2022-12-01T22:40:39;62.23;;;23.73;;
26040;SDS011;13816;53.628;9.950;2022-12-01T22:43:23;51.50;;;23.27;;
26040;SDS011;13816;53.628;9.950;2022-12-01T22:46:45;55.27;;;24.97;;
26040;SDS011;13816;53.628;9.950;2022-12-01T22:50:40;60.73;;;24.50;;
26040;SDS011;13816;53.628;9.950;2022-12-01T22:54:24;58.80;;;25.20;;
26040;SDS011;13816;53.628;9.950;2022-12-01T22:58:29;49.37;;;21.30;;
26040;SDS011;13816;53.628;9.950;2022-12-01T23:01:31;51.03;;;24.23;;
26040;SDS011;13816;53.628;9.950;2022-12-01T23:04:42;64.13;;;22.83;;
26040;SDS011;13816;53.628;9.950;2022-12-01T23:08:24;60.83;;;21.43;;
26040;SDS011;13816;53.628;9.950;2022-12-01T23:11:35;51.30;;;22.17;;
26040;SDS011;13816;53.628;9.950;2022-12-01T23:15:12;65.77;;;23.07;;
26040;SDS011;13816;53.628;9.950;2022-12-01T23:18:30;50.27;;;21.67;;
26040;SDS011;13816;53.628;9.950;2022-12-01T23:22:03;59.10;;;24.20;;
26040;SDS011;13816;53.628;9.950;2022-12-01T23:25:09;65.17;;;25.53;;